Terminal Aerodrome Forecast
Issued by NWS

Home | Current Version | Previous Version | Text Only | Print | Product List | Glossary On
Versions: 1 2 3 4 5 6 7 8 9 10 11 12 13 14
542
FTUS46 KMTR 022340
TAFSJC
TAF
KSJC 022340Z 0300/0324 30012KT P6SM FEW020 SCT200
     FM030400 31005KT P6SM SCT200
     FM030800 29004KT P6SM BKN015
     FM031730 33006KT P6SM SCT020 BKN200
     FM031900 31012KT P6SM BKN200=

USA.gov is the U.S. government's official web portal to all federal, state and local government web resources and services.